sensor_id;sensor_type;location;lat;lon;timestamp;pressure;altitude;pressure_sealevel;temperature;humidity
67397;BME280;57728;50.448;18.824;2023-04-10T00:00:17;98679.03;;;8.87;74.54
67397;BME280;57728;50.448;18.824;2023-04-10T00:02:18;98674.84;;;8.84;74.52
67397;BME280;57728;50.448;18.824;2023-04-10T00:04:21;98674.00;;;8.84;74.64
67397;BME280;57728;50.448;18.824;2023-04-10T00:06:23;98624.84;;;8.58;74.59
67397;BME280;57728;50.448;18.824;2023-04-10T00:08:24;98667.31;;;8.80;74.56
67397;BME280;57728;50.448;18.824;2023-04-10T00:10:27;98659.38;;;8.78;74.70
67397;BME280;57728;50.448;18.824;2023-04-10T00:12:30;98656.84;;;8.76;74.78
67397;BME280;57728;50.448;18.824;2023-04-10T00:14:31;98667.69;;;8.76;74.63
67397;BME280;57728;50.448;18.824;2023-04-10T00:16:33;98584.00;;;8.32;74.51
67397;BME280;57728;50.448;18.824;2023-04-10T00:18:35;98616.88;;;8.50;74.52
67397;BME280;57728;50.448;18.824;2023-04-10T00:20:36;98646.38;;;8.67;74.68
67397;BME280;57728;50.448;18.824;2023-04-10T00:22:39;98610.31;;;8.38;74.57
67397;BME280;57728;50.448;18.824;2023-04-10T00:24:41;98619.34;;;8.45;74.89
67397;BME280;57728;50.448;18.824;2023-04-10T00:26:42;98615.34;;;8.41;75.12
67397;BME280;57728;50.448;18.824;2023-04-10T00:28:44;98650.09;;;8.59;75.23
67397;BME280;57728;50.448;18.824;2023-04-10T00:30:46;98561.78;;;8.08;75.17
67397;BME280;57728;50.448;18.824;2023-04-10T00:32:47;98645.13;;;8.63;75.05
67397;BME280;57728;50.448;18.824;2023-04-10T00:34:49;98620.00;;;8.47;75.19
67397;BME280;57728;50.448;18.824;2023-04-10T00:36:51;98640.09;;;8.66;75.27
67397;BME280;57728;50.448;18.824;2023-04-10T00:38:52;98631.72;;;8.54;75.16
67397;BME280;57728;50.448;18.824;2023-04-10T00:40:54;98646.19;;;8.68;75.16
67397;BME280;57728;50.448;18.824;2023-04-10T00:42:56;98644.50;;;8.67;75.23
67397;BME280;57728;50.448;18.824;2023-04-10T00:44:58;98646.38;;;8.67;75.02
67397;BME280;57728;50.448;18.824;2023-04-10T00:47:00;98627.50;;;8.45;75.17
67397;BME280;57728;50.448;18.824;2023-04-10T00:49:02;98639.25;;;8.59;75.52
67397;BME280;57728;50.448;18.824;2023-04-10T00:51:05;98652.59;;;8.60;75.71
67397;BME280;57728;50.448;18.824;2023-04-10T00:53:08;98637.34;;;8.59;75.54
67397;BME280;57728;50.448;18.824;2023-04-10T00:55:09;98640.06;;;8.59;75.61
67397;BME280;57728;50.448;18.824;2023-04-10T00:57:11;98639.03;;;8.60;75.72
67397;BME280;57728;50.448;18.824;2023-04-10T00:59:14;98620.00;;;8.47;75.71
67397;BME280;57728;50.448;18.824;2023-04-10T01:01:15;98648.25;;;8.66;75.92
67397;BME280;57728;50.448;18.824;2023-04-10T01:03:19;98624.00;;;8.58;75.85
67397;BME280;57728;50.448;18.824;2023-04-10T01:05:25;98582.56;;;8.36;75.75
67397;BME280;57728;50.448;18.824;2023-04-10T01:07:53;98648.50;;;8.78;75.87
67397;BME280;57728;50.448;18.824;2023-04-10T01:10:17;98647.25;;;8.81;75.74
67397;BME280;57728;50.448;18.824;2023-04-10T01:15:11;98591.63;;;8.50;75.75
67397;BME280;57728;50.448;18.824;2023-04-10T01:17:26;98643.69;;;8.80;75.84
67397;BME280;57728;50.448;18.824;2023-04-10T01:22:16;98583.19;;;8.38;76.01
67397;BME280;57728;50.448;18.824;2023-04-10T01:27:18;98614.16;;;8.50;76.07
67397;BME280;57728;50.448;18.824;2023-04-10T01:29:31;98645.16;;;8.76;76.04
67397;BME280;57728;50.448;18.824;2023-04-10T01:32:02;98643.25;;;8.76;76.39
67397;BME280;57728;50.448;18.824;2023-04-10T01:34:14;98616.72;;;8.58;76.30
67397;BME280;57728;50.448;18.824;2023-04-10T01:36:24;98602.66;;;8.48;76.33
67397;BME280;57728;50.448;18.824;2023-04-10T01:38:31;98616.72;;;8.58;76.46
67397;BME280;57728;50.448;18.824;2023-04-10T01:40:38;98593.50;;;8.49;76.38
67397;BME280;57728;50.448;18.824;2023-04-10T01:42:51;98637.22;;;8.74;76.45
67397;BME280;57728;50.448;18.824;2023-04-10T01:45:01;98633.88;;;8.72;76.37
67397;BME280;57728;50.448;18.824;2023-04-10T01:47:07;98633.44;;;8.69;76.38
67397;BME280;57728;50.448;18.824;2023-04-10T01:49:11;98607.91;;;8.56;76.64
67397;BME280;57728;50.448;18.824;2023-04-10T01:51:16;98638.63;;;8.64;76.74
67397;BME280;57728;50.448;18.824;2023-04-10T01:53:19;98634.25;;;8.63;77.06
67397;BME280;57728;50.448;18.824;2023-04-10T01:55:25;98600.50;;;8.37;76.93
67397;BME280;57728;50.448;18.824;2023-04-10T01:57:32;98609.09;;;8.40;77.26
67397;BME280;57728;50.448;18.824;2023-04-10T01:59:37;98618.91;;;8.41;77.23
67397;BME280;57728;50.448;18.824;2023-04-10T02:01:40;98650.09;;;8.59;77.18
67397;BME280;57728;50.448;18.824;2023-04-10T02:03:41;98567.00;;;8.09;77.38
67397;BME280;57728;50.448;18.824;2023-04-10T02:08:33;98651.53;;;8.55;77.32
67397;BME280;57728;50.448;18.824;2023-04-10T02:10:51;98597.50;;;8.18;77.34
67397;BME280;57728;50.448;18.824;2023-04-10T02:13:20;98665.31;;;8.53;77.48
67397;BME280;57728;50.448;18.824;2023-04-10T02:15:27;98611.94;;;8.25;77.71
67397;BME280;57728;50.448;18.824;2023-04-10T02:17:33;98664.31;;;8.61;77.67
67397;BME280;57728;50.448;18.824;2023-04-10T02:19:38;98640.47;;;8.50;77.59
67397;BME280;57728;50.448;18.824;2023-04-10T02:21:42;98488.78;;;7.65;77.42
67397;BME280;57728;50.448;18.824;2023-04-10T02:23:44;98626.19;;;8.41;77.36
67397;BME280;57728;50.448;18.824;2023-04-10T02:25:45;98593.19;;;8.31;77.39
67397;BME280;57728;50.448;18.824;2023-04-10T02:27:47;98638.41;;;8.58;77.32
67397;BME280;57728;50.448;18.824;2023-04-10T02:29:49;98636.75;;;8.57;77.11
67397;BME280;57728;50.448;18.824;2023-04-10T02:31:52;98631.06;;;8.52;77.39
67397;BME280;57728;50.448;18.824;2023-04-10T02:33:54;98627.31;;;8.53;77.39
67397;BME280;57728;50.448;18.824;2023-04-10T02:35:55;98658.09;;;8.74;77.34
67397;BME280;57728;50.448;18.824;2023-04-10T02:37:57;98662.69;;;8.73;77.25
67397;BME280;57728;50.448;18.824;2023-04-10T02:39:59;98663.91;;;8.71;77.22
67397;BME280;57728;50.448;18.824;2023-04-10T02:42:01;98491.31;;;7.66;77.09
67397;BME280;57728;50.448;18.824;2023-04-10T02:44:02;98583.34;;;8.23;76.79
67397;BME280;57728;50.448;18.824;2023-04-10T02:46:05;98556.94;;;7.97;77.05
67397;BME280;57728;50.448;18.824;2023-04-10T02:48:12;98648.19;;;8.46;77.11
67397;BME280;57728;50.448;18.824;2023-04-10T02:50:14;98608.75;;;8.15;77.29
67397;BME280;57728;50.448;18.824;2023-04-10T02:52:19;98591.59;;;8.01;77.55
67397;BME280;57728;50.448;18.824;2023-04-10T02:54:21;98654.16;;;8.35;77.68
67397;BME280;57728;50.448;18.824;2023-04-10T02:56:23;98655.81;;;8.36;77.86
67397;BME280;57728;50.448;18.824;2023-04-10T02:58:27;98659.56;;;8.35;77.77
67397;BME280;57728;50.448;18.824;2023-04-10T03:00:31;98653.69;;;8.31;77.78
67397;BME280;57728;50.448;18.824;2023-04-10T03:02:53;98661.56;;;8.19;77.95
67397;BME280;57728;50.448;18.824;2023-04-10T03:04:55;98551.94;;;7.58;77.81
67397;BME280;57728;50.448;18.824;2023-04-10T03:06:57;98650.53;;;8.21;77.86
67397;BME280;57728;50.448;18.824;2023-04-10T03:08:59;98625.25;;;8.14;78.13
67397;BME280;57728;50.448;18.824;2023-04-10T03:11:02;98626.06;;;8.14;77.93
67397;BME280;57728;50.448;18.824;2023-04-10T03:13:04;98632.13;;;8.16;77.91
67397;BME280;57728;50.448;18.824;2023-04-10T03:15:06;98626.88;;;8.08;77.91
67397;BME280;57728;50.448;18.824;2023-04-10T03:17:08;98626.47;;;8.11;77.79
67397;BME280;57728;50.448;18.824;2023-04-10T03:19:10;98645.28;;;8.19;77.76
67397;BME280;57728;50.448;18.824;2023-04-10T03:21:12;98595.66;;;7.84;77.89
67397;BME280;57728;50.448;18.824;2023-04-10T03:23:14;98559.03;;;7.60;77.99
67397;BME280;57728;50.448;18.824;2023-04-10T03:25:15;98634.81;;;8.09;78.21
67397;BME280;57728;50.448;18.824;2023-04-10T03:27:17;98666.44;;;8.31;78.14
67397;BME280;57728;50.448;18.824;2023-04-10T03:29:19;98670.84;;;8.32;78.04
67397;BME280;57728;50.448;18.824;2023-04-10T03:31:21;98671.44;;;8.34;78.00
67397;BME280;57728;50.448;18.824;2023-04-10T03:33:23;98668.13;;;8.32;77.97
67397;BME280;57728;50.448;18.824;2023-04-10T03:35:26;98671.66;;;8.32;77.76
67397;BME280;57728;50.448;18.824;2023-04-10T03:37:27;98658.94;;;8.33;78.08
67397;BME280;57728;50.448;18.824;2023-04-10T03:39:28;98600.94;;;7.99;77.88
67397;BME280;57728;50.448;18.824;2023-04-10T03:41:31;98663.31;;;8.34;77.91
67397;BME280;57728;50.448;18.824;2023-04-10T03:43:32;98627.75;;;8.15;77.88
67397;BME280;57728;50.448;18.824;2023-04-10T03:45:35;98660.19;;;8.30;77.80
67397;BME280;57728;50.448;18.824;2023-04-10T03:47:37;98663.72;;;8.31;78.04
67397;BME280;57728;50.448;18.824;2023-04-10T03:49:41;98637.16;;;8.19;78.22
67397;BME280;57728;50.448;18.824;2023-04-10T03:51:42;98657.06;;;8.33;78.06
67397;BME280;57728;50.448;18.824;2023-04-10T03:53:44;98663.31;;;8.34;77.91
67397;BME280;57728;50.448;18.824;2023-04-10T03:55:49;98663.53;;;8.32;77.95
67397;BME280;57728;50.448;18.824;2023-04-10T03:57:52;98615.56;;;7.98;78.00
67397;BME280;57728;50.448;18.824;2023-04-10T03:59:58;98635.47;;;8.12;77.99
67397;BME280;57728;50.448;18.824;2023-04-10T04:02:00;98644.63;;;8.11;78.04
67397;BME280;57728;50.448;18.824;2023-04-10T04:04:01;98649.19;;;8.10;77.86
67397;BME280;57728;50.448;18.824;2023-04-10T04:06:22;98625.75;;;7.96;78.06
67397;BME280;57728;50.448;18.824;2023-04-10T04:08:55;98594.38;;;7.80;78.18
67397;BME280;57728;50.448;18.824;2023-04-10T04:11:36;98665.72;;;8.15;78.22
67397;BME280;57728;50.448;18.824;2023-04-10T04:13:49;98651.13;;;8.16;78.42
67397;BME280;57728;50.448;18.824;2023-04-10T04:16:03;98658.63;;;8.14;78.30
67397;BME280;57728;50.448;18.824;2023-04-10T04:18:21;98628.06;;;7.99;78.55
67397;BME280;57728;50.448;18.824;2023-04-10T04:20:27;98686.19;;;8.18;78.45
67397;BME280;57728;50.448;18.824;2023-04-10T04:22:34;98651.75;;;8.12;78.60
67397;BME280;57728;50.448;18.824;2023-04-10T04:24:39;98671.59;;;8.25;78.22
67397;BME280;57728;50.448;18.824;2023-04-10T04:26:50;98674.97;;;8.27;78.32
67397;BME280;57728;50.448;18.824;2023-04-10T04:29:06;98670.19;;;8.30;78.26
67397;BME280;57728;50.448;18.824;2023-04-10T04:31:14;98640.69;;;8.13;78.10
67397;BME280;57728;50.448;18.824;2023-04-10T04:33:34;98676.47;;;8.37;78.30
67397;BME280;57728;50.448;18.824;2023-04-10T04:35:41;98480.38;;;7.11;78.05
67397;BME280;57728;50.448;18.824;2023-04-10T04:38:04;98649.91;;;8.25;78.02
67397;BME280;57728;50.448;18.824;2023-04-10T04:40:23;98672.31;;;8.41;77.88
67397;BME280;57728;50.448;18.824;2023-04-10T04:42:43;98496.56;;;7.33;77.67
67397;BME280;57728;50.448;18.824;2023-04-10T04:44:48;98641.31;;;8.15;78.15
67397;BME280;57728;50.448;18.824;2023-04-10T04:47:22;98686.53;;;8.43;78.08
67397;BME280;57728;50.448;18.824;2023-04-10T04:49:58;98679.22;;;8.43;77.90
67397;BME280;57728;50.448;18.824;2023-04-10T04:52:08;98676.72;;;8.42;77.79
67397;BME280;57728;50.448;18.824;2023-04-10T04:54:16;98680.88;;;8.38;77.70
67397;BME280;57728;50.448;18.824;2023-04-10T04:56:38;98539.19;;;7.52;77.76
67397;BME280;57728;50.448;18.824;2023-04-10T04:58:58;98603.84;;;7.90;77.87
67397;BME280;57728;50.448;18.824;2023-04-10T05:01:08;98678.81;;;8.40;77.95
67397;BME280;57728;50.448;18.824;2023-04-10T05:03:30;98628.16;;;8.12;78.16
67397;BME280;57728;50.448;18.824;2023-04-10T05:05:55;98693.06;;;8.49;78.09
67397;BME280;57728;50.448;18.824;2023-04-10T05:08:15;98537.31;;;7.53;77.69
67397;BME280;57728;50.448;18.824;2023-04-10T05:10:39;98682.34;;;8.40;77.67
67397;BME280;57728;50.448;18.824;2023-04-10T05:12:58;98676.25;;;8.32;77.58
67397;BME280;57728;50.448;18.824;2023-04-10T05:15:09;98690.50;;;8.40;77.71
67397;BME280;57728;50.448;18.824;2023-04-10T05:17:29;98661.72;;;8.11;77.61
67397;BME280;57728;50.448;18.824;2023-04-10T05:19:51;98541.94;;;7.31;77.64
67397;BME280;57728;50.448;18.824;2023-04-10T05:22:14;98550.91;;;7.31;77.46
67397;BME280;57728;50.448;18.824;2023-04-10T05:24:47;98710.19;;;8.21;77.86
67397;BME280;57728;50.448;18.824;2023-04-10T05:27:03;98625.38;;;7.70;77.95
67397;BME280;57728;50.448;18.824;2023-04-10T05:29:16;98589.97;;;7.44;77.99
67397;BME280;57728;50.448;18.824;2023-04-10T05:31:30;98677.88;;;7.91;78.33
67397;BME280;57728;50.448;18.824;2023-04-10T05:33:57;98667.84;;;7.91;78.58
67397;BME280;57728;50.448;18.824;2023-04-10T05:36:16;98712.66;;;8.16;78.75
67397;BME280;57728;50.448;18.824;2023-04-10T05:38:35;98688.63;;;8.06;78.59
67397;BME280;57728;50.448;18.824;2023-04-10T05:40:51;98682.59;;;8.11;78.72
67397;BME280;57728;50.448;18.824;2023-04-10T05:43:11;98709.22;;;8.29;78.83
67397;BME280;57728;50.448;18.824;2023-04-10T05:45:33;98679.28;;;8.15;78.68
67397;BME280;57728;50.448;18.824;2023-04-10T05:47:59;98629.28;;;7.89;78.54
67397;BME280;57728;50.448;18.824;2023-04-10T05:50:08;98702.53;;;8.31;78.29
67397;BME280;57728;50.448;18.824;2023-04-10T05:52:43;98715.94;;;8.39;78.28
67397;BME280;57728;50.448;18.824;2023-04-10T05:55:12;98646.81;;;7.94;78.26
67397;BME280;57728;50.448;18.824;2023-04-10T05:57:31;98725.13;;;8.38;78.26
67397;BME280;57728;50.448;18.824;2023-04-10T05:59:54;98718.84;;;8.38;78.60
67397;BME280;57728;50.448;18.824;2023-04-10T06:02:14;98519.53;;;7.15;78.32
67397;BME280;57728;50.448;18.824;2023-04-10T06:04:16;98676.97;;;8.12;78.60
67397;BME280;57728;50.448;18.824;2023-04-10T06:06:19;98711.31;;;8.33;78.58
67397;BME280;57728;50.448;18.824;2023-04-10T06:08:21;98719.06;;;8.36;78.69
67397;BME280;57728;50.448;18.824;2023-04-10T06:10:22;98715.13;;;8.39;78.76
67397;BME280;57728;50.448;18.824;2023-04-10T06:12:26;98723.50;;;8.44;78.85
67397;BME280;57728;50.448;18.824;2023-04-10T06:14:27;98685.63;;;8.29;78.56
67397;BME280;57728;50.448;18.824;2023-04-10T06:16:31;98645.47;;;8.11;78.48
67397;BME280;57728;50.448;18.824;2023-04-10T06:18:33;98694.69;;;8.43;78.53
67397;BME280;57728;50.448;18.824;2023-04-10T06:20:35;98700.94;;;8.43;78.65
67397;BME280;57728;50.448;18.824;2023-04-10T06:22:36;98696.75;;;8.41;78.76
67397;BME280;57728;50.448;18.824;2023-04-10T06:24:38;98679.16;;;8.30;78.29
67397;BME280;57728;50.448;18.824;2023-04-10T06:26:40;98603.28;;;7.67;78.39
67397;BME280;57728;50.448;18.824;2023-04-10T06:28:41;98724.00;;;8.54;78.78
67397;BME280;57728;50.448;18.824;2023-04-10T06:30:43;98702.44;;;8.46;78.52
67397;BME280;57728;50.448;18.824;2023-04-10T06:32:45;98716.06;;;8.59;78.52
67397;BME280;57728;50.448;18.824;2023-04-10T06:34:47;98720.66;;;8.59;78.53
67397;BME280;57728;50.448;18.824;2023-04-10T06:36:49;98573.00;;;7.63;78.43
67397;BME280;57728;50.448;18.824;2023-04-10T06:38:50;98702.81;;;8.43;78.69
67397;BME280;57728;50.448;18.824;2023-04-10T06:40:51;98687.00;;;8.47;78.60
67397;BME280;57728;50.448;18.824;2023-04-10T06:42:54;98681.38;;;8.48;78.34
67397;BME280;57728;50.448;18.824;2023-04-10T06:45:02;98634.84;;;8.16;78.29
67397;BME280;57728;50.448;18.824;2023-04-10T06:47:04;98728.03;;;8.72;78.39
67397;BME280;57728;50.448;18.824;2023-04-10T06:49:07;98730.56;;;8.73;78.29
67397;BME280;57728;50.448;18.824;2023-04-10T06:51:08;98739.97;;;8.77;78.39
67397;BME280;57728;50.448;18.824;2023-04-10T06:53:09;98574.41;;;7.87;78.38
67397;BME280;57728;50.448;18.824;2023-04-10T06:55:11;98593.22;;;7.96;78.12
67397;BME280;57728;50.448;18.824;2023-04-10T06:57:13;98545.59;;;7.80;77.80
67397;BME280;57728;50.448;18.824;2023-04-10T06:59:14;98674.72;;;8.57;78.17
67397;BME280;57728;50.448;18.824;2023-04-10T07:01:16;98727.53;;;8.97;78.13
67397;BME280;57728;50.448;18.824;2023-04-10T07:03:17;98731.53;;;9.01;78.03
67397;BME280;57728;50.448;18.824;2023-04-10T07:05:18;98674.78;;;8.71;77.77
67397;BME280;57728;50.448;18.824;2023-04-10T07:07:21;98596.47;;;8.19;77.65
67397;BME280;57728;50.448;18.824;2023-04-10T07:09:25;98717.94;;;9.07;77.89
67397;BME280;57728;50.448;18.824;2023-04-10T07:11:27;98735.75;;;9.23;77.65
67397;BME280;57728;50.448;18.824;2023-04-10T07:13:29;98702.06;;;9.11;77.37
67397;BME280;57728;50.448;18.824;2023-04-10T07:15:31;98714.63;;;9.12;76.89
67397;BME280;57728;50.448;18.824;2023-04-10T07:17:32;98670.69;;;8.88;77.08
67397;BME280;57728;50.448;18.824;2023-04-10T07:19:34;98700.38;;;9.03;76.92
67397;BME280;57728;50.448;18.824;2023-04-10T07:21:37;98729.88;;;9.06;77.03
67397;BME280;57728;50.448;18.824;2023-04-10T07:23:38;98710.22;;;9.11;76.91
67397;BME280;57728;50.448;18.824;2023-04-10T07:25:41;98521.25;;;7.86;76.64
67397;BME280;57728;50.448;18.824;2023-04-10T07:27:43;98642.19;;;8.71;76.78
67397;BME280;57728;50.448;18.824;2023-04-10T07:29:44;98659.38;;;8.78;76.61
67397;BME280;57728;50.448;18.824;2023-04-10T07:31:46;98717.13;;;9.20;76.81
67397;BME280;57728;50.448;18.824;2023-04-10T07:33:47;98551.16;;;8.06;76.66
67397;BME280;57728;50.448;18.824;2023-04-10T07:35:48;98717.34;;;9.19;76.97
67397;BME280;57728;50.448;18.824;2023-04-10T07:37:50;98620.00;;;8.54;76.79
67397;BME280;57728;50.448;18.824;2023-04-10T07:39:52;98681.94;;;8.92;77.09
67397;BME280;57728;50.448;18.824;2023-04-10T07:41:53;98722.97;;;9.17;77.13
67397;BME280;57728;50.448;18.824;2023-04-10T07:43:56;98681.13;;;8.91;77.24
67397;BME280;57728;50.448;18.824;2023-04-10T07:45:57;98717.78;;;9.22;77.50
67397;BME280;57728;50.448;18.824;2023-04-10T07:47:58;98565.22;;;8.37;77.55
67397;BME280;57728;50.448;18.824;2023-04-10T07:50:00;98593.97;;;8.66;77.17
67397;BME280;57728;50.448;18.824;2023-04-10T07:52:02;98645.44;;;9.01;77.04
67397;BME280;57728;50.448;18.824;2023-04-10T07:54:03;98723.69;;;9.46;77.16
67397;BME280;57728;50.448;18.824;2023-04-10T07:56:06;98647.75;;;9.11;77.02
67397;BME280;57728;50.448;18.824;2023-04-10T07:58:08;98712.19;;;9.57;77.29
67397;BME280;57728;50.448;18.824;2023-04-10T08:00:10;98707.19;;;9.68;77.40
67397;BME280;57728;50.448;18.824;2023-04-10T08:02:16;98721.19;;;9.78;77.05
67397;BME280;57728;50.448;18.824;2023-04-10T08:04:17;98683.31;;;9.70;76.95
67397;BME280;57728;50.448;18.824;2023-04-10T08:06:19;98693.56;;;9.94;77.29
67397;BME280;57728;50.448;18.824;2023-04-10T08:08:21;98579.63;;;9.39;76.99
67397;BME280;57728;50.448;18.824;2023-04-10T08:10:22;98674.72;;;10.13;76.67
67397;BME280;57728;50.448;18.824;2023-04-10T08:12:24;98500.84;;;9.19;75.97
67397;BME280;57728;50.448;18.824;2023-04-10T08:14:26;98668.19;;;10.41;75.73
67397;BME280;57728;50.448;18.824;2023-04-10T08:16:30;98714.56;;;10.73;75.41
67397;BME280;57728;50.448;18.824;2023-04-10T08:18:32;98714.78;;;10.78;74.80
67397;BME280;57728;50.448;18.824;2023-04-10T08:20:34;98712.88;;;10.78;74.59
67397;BME280;57728;50.448;18.824;2023-04-10T08:22:37;98662.50;;;10.49;74.53
67397;BME280;57728;50.448;18.824;2023-04-10T08:24:38;98523.97;;;9.69;74.61
67397;BME280;57728;50.448;18.824;2023-04-10T08:26:40;98627.38;;;10.41;74.27
67397;BME280;57728;50.448;18.824;2023-04-10T08:28:41;98641.13;;;10.59;74.92
67397;BME280;57728;50.448;18.824;2023-04-10T08:30:47;98716.50;;;11.11;74.33
67397;BME280;57728;50.448;18.824;2023-04-10T08:32:49;98713.06;;;11.29;74.10
67397;BME280;57728;50.448;18.824;2023-04-10T08:34:50;98712.59;;;11.39;73.79
67397;BME280;57728;50.448;18.824;2023-04-10T08:36:53;98672.84;;;11.24;73.13
67397;BME280;57728;50.448;18.824;2023-04-10T08:38:55;98680.31;;;11.35;73.27
67397;BME280;57728;50.448;18.824;2023-04-10T08:40:56;98710.72;;;11.64;72.96
67397;BME280;57728;50.448;18.824;2023-04-10T08:42:58;98649.25;;;11.36;73.04
67397;BME280;57728;50.448;18.824;2023-04-10T08:45:02;98643.31;;;11.46;73.10
67397;BME280;57728;50.448;18.824;2023-04-10T08:47:07;98628.25;;;11.44;72.14
67397;BME280;57728;50.448;18.824;2023-04-10T08:49:16;98709.91;;;11.89;71.92
67397;BME280;57728;50.448;18.824;2023-04-10T08:51:35;98660.44;;;11.53;72.16
67397;BME280;57728;50.448;18.824;2023-04-10T08:53:43;98650.22;;;11.49;72.10
67397;BME280;57728;50.448;18.824;2023-04-10T08:55:45;98646.25;;;11.45;72.01
67397;BME280;57728;50.448;18.824;2023-04-10T08:57:48;98562.38;;;10.90;71.88
67397;BME280;57728;50.448;18.824;2023-04-10T08:59:50;98696.63;;;11.67;72.35
67397;BME280;57728;50.448;18.824;2023-04-10T09:01:52;98576.56;;;10.98;72.25
67397;BME280;57728;50.448;18.824;2023-04-10T09:03:54;98719.72;;;11.97;72.00
67397;BME280;57728;50.448;18.824;2023-04-10T09:06:01;98689.59;;;11.85;71.93
67397;BME280;57728;50.448;18.824;2023-04-10T09:08:07;98562.03;;;11.11;71.58
67397;BME280;57728;50.448;18.824;2023-04-10T09:10:10;98617.94;;;11.46;71.20
67397;BME280;57728;50.448;18.824;2023-04-10T09:12:12;98677.00;;;11.84;71.22
67397;BME280;57728;50.448;18.824;2023-04-10T09:14:26;98595.16;;;11.33;71.61
67397;BME280;57728;50.448;18.824;2023-04-10T09:16:29;98681.41;;;12.10;71.84
67397;BME280;57728;50.448;18.824;2023-04-10T09:18:49;98685.91;;;12.23;71.34
67397;BME280;57728;50.448;18.824;2023-04-10T09:20:52;98715.22;;;12.53;70.94
67397;BME280;57728;50.448;18.824;2023-04-10T09:22:54;98683.56;;;12.45;70.73
67397;BME280;57728;50.448;18.824;2023-04-10T09:24:57;98691.09;;;12.50;70.59
67397;BME280;57728;50.448;18.824;2023-04-10T09:26:59;98711.50;;;12.66;70.26
67397;BME280;57728;50.448;18.824;2023-04-10T09:29:06;98717.78;;;12.66;70.18
67397;BME280;57728;50.448;18.824;2023-04-10T09:33:31;98652.97;;;12.18;69.58
67397;BME280;57728;50.448;18.824;2023-04-10T09:35:37;98725.03;;;12.54;70.00
67397;BME280;57728;50.448;18.824;2023-04-10T09:37:40;98663.50;;;12.14;69.63
67397;BME280;57728;50.448;18.824;2023-04-10T09:39:43;98587.69;;;11.73;69.72
67397;BME280;57728;50.448;18.824;2023-04-10T09:41:53;98714.13;;;12.54;69.77
67397;BME280;57728;50.448;18.824;2023-04-10T09:44:05;98708.38;;;12.62;69.52
67397;BME280;57728;50.448;18.824;2023-04-10T09:46:07;98708.53;;;12.67;69.15
67397;BME280;57728;50.448;18.824;2023-04-10T09:48:09;98695.56;;;12.63;69.00
67397;BME280;57728;50.448;18.824;2023-04-10T09:50:11;98678.31;;;12.62;69.06
67397;BME280;57728;50.448;18.824;2023-04-10T09:52:18;98709.88;;;12.95;68.95
67397;BME280;57728;50.448;18.824;2023-04-10T09:54:35;98708.25;;;13.06;68.14
67397;BME280;57728;50.448;18.824;2023-04-10T09:56:38;98677.09;;;12.95;68.09
67397;BME280;57728;50.448;18.824;2023-04-10T09:58:40;98681.63;;;13.01;67.56
67397;BME280;57728;50.448;18.824;2023-04-10T10:00:44;98694.50;;;13.13;67.62
67397;BME280;57728;50.448;18.824;2023-04-10T10:02:48;98694.97;;;13.10;67.27
67397;BME280;57728;50.448;18.824;2023-04-10T10:04:51;98692.47;;;13.08;67.64
67397;BME280;57728;50.448;18.824;2023-04-10T10:06:54;98689.50;;;13.10;67.38
67397;BME280;57728;50.448;18.824;2023-04-10T10:08:55;98671.97;;;12.99;66.94
67397;BME280;57728;50.448;18.824;2023-04-10T10:11:07;98625.28;;;12.70;66.87
67397;BME280;57728;50.448;18.824;2023-04-10T10:13:40;98679.47;;;13.03;66.93
67397;BME280;57728;50.448;18.824;2023-04-10T10:16:19;98680.44;;;13.09;66.51
67397;BME280;57728;50.448;18.824;2023-04-10T10:20:56;98629.31;;;12.98;66.93
67397;BME280;57728;50.448;18.824;2023-04-10T10:23:02;98627.69;;;13.08;66.42
67397;BME280;57728;50.448;18.824;2023-04-10T10:25:06;98655.59;;;13.29;66.69
67397;BME280;57728;50.448;18.824;2023-04-10T10:27:09;98676.94;;;13.51;66.69
67397;BME280;57728;50.448;18.824;2023-04-10T10:29:14;98672.19;;;13.58;66.30
67397;BME280;57728;50.448;18.824;2023-04-10T10:31:18;98652.31;;;13.51;66.13
67397;BME280;57728;50.448;18.824;2023-04-10T10:33:21;98642.59;;;13.55;66.03
67397;BME280;57728;50.448;18.824;2023-04-10T10:35:26;98606.53;;;13.46;65.61
67397;BME280;57728;50.448;18.824;2023-04-10T10:37:29;98677.63;;;14.00;65.26
67397;BME280;57728;50.448;18.824;2023-04-10T10:42:10;98665.97;;;14.17;64.18
67397;BME280;57728;50.448;18.824;2023-04-10T10:44:48;98619.53;;;13.86;64.04
67397;BME280;57728;50.448;18.824;2023-04-10T10:49:18;98670.34;;;13.94;63.37
67397;BME280;57728;50.448;18.824;2023-04-10T10:51:20;98608.19;;;13.35;63.74
67397;BME280;57728;50.448;18.824;2023-04-10T10:53:41;98676.72;;;13.64;64.35
67397;BME280;57728;50.448;18.824;2023-04-10T10:55:44;98664.72;;;13.53;64.29
67397;BME280;57728;50.448;18.824;2023-04-10T10:57:49;98673.72;;;13.54;64.57
67397;BME280;57728;50.448;18.824;2023-04-10T10:59:54;98662.94;;;13.59;64.80
67397;BME280;57728;50.448;18.824;2023-04-10T11:02:25;98662.94;;;13.59;64.40
67397;BME280;57728;50.448;18.824;2023-04-10T11:04:47;98659.91;;;13.49;64.67
67397;BME280;57728;50.448;18.824;2023-04-10T11:06:50;98513.09;;;12.53;64.40
67397;BME280;57728;50.448;18.824;2023-04-10T11:08:52;98500.47;;;12.40;64.60
67397;BME280;57728;50.448;18.824;2023-04-10T11:11:10;98509.19;;;12.30;64.63
67397;BME280;57728;50.448;18.824;2023-04-10T11:13:16;98649.63;;;13.32;65.49
67397;BME280;57728;50.448;18.824;2023-04-10T11:15:22;98607.59;;;13.15;65.38
67397;BME280;57728;50.448;18.824;2023-04-10T11:17:45;98657.53;;;13.40;65.04
67397;BME280;57728;50.448;18.824;2023-04-10T11:20:00;98635.72;;;13.34;65.09
67397;BME280;57728;50.448;18.824;2023-04-10T11:22:04;98612.28;;;13.26;65.21
67397;BME280;57728;50.448;18.824;2023-04-10T11:24:08;98630.06;;;13.47;65.17
67397;BME280;57728;50.448;18.824;2023-04-10T11:26:09;98646.91;;;13.74;65.10
67397;BME280;57728;50.448;18.824;2023-04-10T11:30:34;98642.13;;;13.93;64.29
67397;BME280;57728;50.448;18.824;2023-04-10T11:32:40;98608.09;;;13.78;63.91